sensor_id;sensor_type;location;lat;lon;timestamp;pressure;altitude;pressure_sealevel;temperature;humidity
50268;BME280;36153;50.960;6.220;2023-02-12T00:00:09;102792.25;;;11.84;62.27
50268;BME280;36153;50.960;6.220;2023-02-12T00:03:10;102787.72;;;11.79;62.34
50268;BME280;36153;50.960;6.220;2023-02-12T00:06:12;102788.47;;;11.77;62.22
50268;BME280;36153;50.960;6.220;2023-02-12T00:09:14;102790.34;;;11.79;62.49
50268;BME280;36153;50.960;6.220;2023-02-12T00:12:15;102792.81;;;11.76;62.10
50268;BME280;36153;50.960;6.220;2023-02-12T00:15:17;102788.44;;;11.75;62.44
50268;BME280;36153;50.960;6.220;2023-02-12T00:18:18;102791.03;;;11.75;62.12
50268;BME280;36153;50.960;6.220;2023-02-12T00:21:21;102799.75;;;11.76;62.31
50268;BME280;36153;50.960;6.220;2023-02-12T00:24:23;102796.25;;;11.75;62.24
50268;BME280;36153;50.960;6.220;2023-02-12T00:27:25;102800.03;;;11.82;62.25
50268;BME280;36153;50.960;6.220;2023-02-12T00:30:26;102802.63;;;11.82;62.12
50268;BME280;36153;50.960;6.220;2023-02-12T00:33:28;102806.75;;;11.77;62.20
50268;BME280;36153;50.960;6.220;2023-02-12T00:36:31;102803.06;;;11.72;62.29
50268;BME280;36153;50.960;6.220;2023-02-12T00:39:32;102804.44;;;11.64;62.14
50268;BME280;36153;50.960;6.220;2023-02-12T00:42:34;102811.22;;;11.60;62.17
50268;BME280;36153;50.960;6.220;2023-02-12T00:45:35;102814.78;;;11.62;62.17
50268;BME280;36153;50.960;6.220;2023-02-12T00:48:37;102803.59;;;11.65;62.15
50268;BME280;36153;50.960;6.220;2023-02-12T00:51:37;102803.75;;;11.68;62.18
50268;BME280;36153;50.960;6.220;2023-02-12T00:54:37;102802.03;;;11.68;62.32
50268;BME280;36153;50.960;6.220;2023-02-12T00:57:38;102805.88;;;11.76;62.01
50268;BME280;36153;50.960;6.220;2023-02-12T01:00:38;102799.84;;;11.77;61.89
50268;BME280;36153;50.960;6.220;2023-02-12T01:03:39;102797.41;;;11.82;61.92
50268;BME280;36153;50.960;6.220;2023-02-12T01:06:39;102794.88;;;11.84;61.59
50268;BME280;36153;50.960;6.220;2023-02-12T01:09:39;102794.00;;;11.83;61.59
50268;BME280;36153;50.960;6.220;2023-02-12T01:12:40;102807.22;;;11.88;61.47
50268;BME280;36153;50.960;6.220;2023-02-12T01:15:41;102794.28;;;11.91;61.37
50268;BME280;36153;50.960;6.220;2023-02-12T01:18:42;102796.59;;;11.83;61.03
50268;BME280;36153;50.960;6.220;2023-02-12T01:21:42;102788.28;;;11.72;60.96
50268;BME280;36153;50.960;6.220;2023-02-12T01:24:43;102787.25;;;11.69;61.20
50268;BME280;36153;50.960;6.220;2023-02-12T01:27:43;102783.66;;;11.65;61.66
50268;BME280;36153;50.960;6.220;2023-02-12T01:30:44;102785.69;;;11.72;61.56
50268;BME280;36153;50.960;6.220;2023-02-12T01:33:47;102792.13;;;11.81;61.05
50268;BME280;36153;50.960;6.220;2023-02-12T01:36:48;102788.78;;;11.83;60.94
50268;BME280;36153;50.960;6.220;2023-02-12T01:39:48;102785.88;;;11.77;61.00
50268;BME280;36153;50.960;6.220;2023-02-12T01:42:49;102776.88;;;11.70;60.93
50268;BME280;36153;50.960;6.220;2023-02-12T01:45:50;102777.44;;;11.63;61.00
50268;BME280;36153;50.960;6.220;2023-02-12T01:48:52;102775.53;;;11.59;61.41
50268;BME280;36153;50.960;6.220;2023-02-12T01:52:23;102774.78;;;11.61;61.57
50268;BME280;36153;50.960;6.220;2023-02-12T01:55:25;102771.28;;;11.61;61.16
50268;BME280;36153;50.960;6.220;2023-02-12T01:58:27;102769.69;;;11.65;61.30
50268;BME280;36153;50.960;6.220;2023-02-12T02:01:30;102780.06;;;11.63;61.25
50268;BME280;36153;50.960;6.220;2023-02-12T02:04:36;102772.50;;;11.69;61.13
50268;BME280;36153;50.960;6.220;2023-02-12T02:07:38;102778.81;;;11.74;60.95
50268;BME280;36153;50.960;6.220;2023-02-12T02:10:39;102782.25;;;11.73;60.89
50268;BME280;36153;50.960;6.220;2023-02-12T02:13:39;102771.66;;;11.70;60.87
50268;BME280;36153;50.960;6.220;2023-02-12T02:17:26;102768.31;;;11.73;60.63
50268;BME280;36153;50.960;6.220;2023-02-12T02:31:25;102773.78;;;11.58;61.19
50268;BME280;36153;50.960;6.220;2023-02-12T02:34:47;102773.91;;;11.61;61.27
50268;BME280;36153;50.960;6.220;2023-02-12T02:44:41;102768.31;;;11.53;61.11
50268;BME280;36153;50.960;6.220;2023-02-12T02:47:52;102760.31;;;11.49;61.11
50268;BME280;36153;50.960;6.220;2023-02-12T02:50:58;102764.22;;;11.58;61.35
50268;BME280;36153;50.960;6.220;2023-02-12T02:54:05;102762.09;;;11.69;61.31
50268;BME280;36153;50.960;6.220;2023-02-12T02:57:13;102766.44;;;11.70;61.23
50268;BME280;36153;50.960;6.220;2023-02-12T03:00:17;102759.53;;;11.71;60.88
50268;BME280;36153;50.960;6.220;2023-02-12T03:03:27;102762.78;;;11.65;60.97
50268;BME280;36153;50.960;6.220;2023-02-12T03:06:57;102759.31;;;11.66;60.95
50268;BME280;36153;50.960;6.220;2023-02-12T03:10:10;102751.72;;;11.71;60.91
50268;BME280;36153;50.960;6.220;2023-02-12T03:13:16;102754.50;;;11.75;60.71
50268;BME280;36153;50.960;6.220;2023-02-12T03:16:30;102757.94;;;11.74;60.61
50268;BME280;36153;50.960;6.220;2023-02-12T03:19:36;102754.50;;;11.75;60.62
50268;BME280;36153;50.960;6.220;2023-02-12T03:22:41;102756.16;;;11.73;60.44
50268;BME280;36153;50.960;6.220;2023-02-12T03:25:51;102760.97;;;11.64;60.10
50268;BME280;36153;50.960;6.220;2023-02-12T03:28:53;102757.91;;;11.53;60.34
50268;BME280;36153;50.960;6.220;2023-02-12T03:35:32;102743.81;;;11.69;60.46
50268;BME280;36153;50.960;6.220;2023-02-12T03:38:42;102750.81;;;11.51;60.66
50268;BME280;36153;50.960;6.220;2023-02-12T03:48:42;102743.00;;;11.51;60.87
50268;BME280;36153;50.960;6.220;2023-02-12T03:51:44;102756.03;;;11.51;60.50
50268;BME280;36153;50.960;6.220;2023-02-12T03:54:45;102747.97;;;11.44;60.54
50268;BME280;36153;50.960;6.220;2023-02-12T03:57:52;102756.72;;;11.47;60.62
50268;BME280;36153;50.960;6.220;2023-02-12T04:00:54;102753.03;;;11.41;60.69
50268;BME280;36153;50.960;6.220;2023-02-12T04:03:55;102754.81;;;11.42;60.55
50268;BME280;36153;50.960;6.220;2023-02-12T04:06:56;102756.47;;;11.40;60.70
50268;BME280;36153;50.960;6.220;2023-02-12T04:09:56;102758.25;;;11.41;60.62
50268;BME280;36153;50.960;6.220;2023-02-12T04:19:57;102760.81;;;11.40;60.75
50268;BME280;36153;50.960;6.220;2023-02-12T04:23:09;102770.94;;;11.53;60.60
50268;BME280;36153;50.960;6.220;2023-02-12T04:29:56;102774.28;;;11.51;60.12
50268;BME280;36153;50.960;6.220;2023-02-12T04:33:03;102776.22;;;11.55;60.48
50268;BME280;36153;50.960;6.220;2023-02-12T04:36:10;102776.97;;;11.52;60.09
50268;BME280;36153;50.960;6.220;2023-02-12T04:39:17;102788.19;;;11.50;59.99
50268;BME280;36153;50.960;6.220;2023-02-12T04:42:19;102787.91;;;11.43;60.10
50268;BME280;36153;50.960;6.220;2023-02-12T04:45:25;102787.41;;;11.33;60.05
50268;BME280;36153;50.960;6.220;2023-02-12T04:48:25;102788.31;;;11.33;60.31
50268;BME280;36153;50.960;6.220;2023-02-12T04:51:26;102793.41;;;11.30;60.32
50268;BME280;36153;50.960;6.220;2023-02-12T04:54:26;102791.19;;;11.39;60.76
50268;BME280;36153;50.960;6.220;2023-02-12T04:57:26;102785.09;;;11.39;60.37
50268;BME280;36153;50.960;6.220;2023-02-12T05:00:27;102787.34;;;11.31;60.36
50268;BME280;36153;50.960;6.220;2023-02-12T05:03:27;102788.72;;;11.23;60.37
50268;BME280;36153;50.960;6.220;2023-02-12T05:06:28;102785.09;;;11.19;60.68
50268;BME280;36153;50.960;6.220;2023-02-12T05:09:29;102781.72;;;11.22;60.61
50268;BME280;36153;50.960;6.220;2023-02-12T05:12:30;102778.44;;;11.26;60.98
50268;BME280;36153;50.960;6.220;2023-02-12T05:15:30;102783.97;;;11.34;60.92
50268;BME280;36153;50.960;6.220;2023-02-12T05:18:31;102785.84;;;11.36;60.71
50268;BME280;36153;50.960;6.220;2023-02-12T05:21:32;102785.59;;;11.30;60.32
50268;BME280;36153;50.960;6.220;2023-02-12T05:24:32;102793.41;;;11.30;60.76
50268;BME280;36153;50.960;6.220;2023-02-12T05:27:32;102795.22;;;11.33;60.54
50268;BME280;36153;50.960;6.220;2023-02-12T05:30:33;102796.16;;;11.33;60.64
50268;BME280;36153;50.960;6.220;2023-02-12T05:33:33;102791.75;;;11.32;60.47
50268;BME280;36153;50.960;6.220;2023-02-12T05:36:34;102789.81;;;11.28;60.42
50268;BME280;36153;50.960;6.220;2023-02-12T05:39:34;102802.97;;;11.31;60.69
50268;BME280;36153;50.960;6.220;2023-02-12T05:42:35;102806.44;;;11.30;60.86
50268;BME280;36153;50.960;6.220;2023-02-12T05:45:35;102803.06;;;11.33;60.53
50268;BME280;36153;50.960;6.220;2023-02-12T05:48:37;102802.97;;;11.31;60.48
50268;BME280;36153;50.960;6.220;2023-02-12T05:51:38;102810.75;;;11.30;60.75
50268;BME280;36153;50.960;6.220;2023-02-12T05:54:38;102802.84;;;11.28;60.80
50268;BME280;36153;50.960;6.220;2023-02-12T05:57:38;102796.16;;;11.33;60.80
50268;BME280;36153;50.960;6.220;2023-02-12T06:00:39;102797.91;;;11.34;60.79
50268;BME280;36153;50.960;6.220;2023-02-12T06:03:40;102802.31;;;11.35;60.92
50268;BME280;36153;50.960;6.220;2023-02-12T06:06:41;102804.47;;;11.44;60.87
50268;BME280;36153;50.960;6.220;2023-02-12T06:09:41;102803.41;;;11.40;60.70
50268;BME280;36153;50.960;6.220;2023-02-12T06:12:42;102807.94;;;11.44;60.68
50268;BME280;36153;50.960;6.220;2023-02-12T06:15:42;102806.44;;;11.50;60.63
50268;BME280;36153;50.960;6.220;2023-02-12T06:18:42;102798.63;;;11.50;60.40
50268;BME280;36153;50.960;6.220;2023-02-12T06:21:43;102799.44;;;11.49;60.78
50268;BME280;36153;50.960;6.220;2023-02-12T06:24:43;102803.84;;;11.50;60.62
50268;BME280;36153;50.960;6.220;2023-02-12T06:27:44;102808.88;;;11.47;60.44
50268;BME280;36153;50.960;6.220;2023-02-12T06:30:44;102807.25;;;11.49;60.46
50268;BME280;36153;50.960;6.220;2023-02-12T06:33:45;102812.19;;;11.42;60.37
50268;BME280;36153;50.960;6.220;2023-02-12T06:36:46;102816.94;;;11.51;60.68
50268;BME280;36153;50.960;6.220;2023-02-12T06:39:46;102816.03;;;11.51;60.10
50268;BME280;36153;50.960;6.220;2023-02-12T06:42:47;102820.16;;;11.46;60.17
50268;BME280;36153;50.960;6.220;2023-02-12T06:45:47;102811.19;;;11.39;60.14
50268;BME280;36153;50.960;6.220;2023-02-12T06:48:47;102818.94;;;11.37;60.44
50268;BME280;36153;50.960;6.220;2023-02-12T06:51:48;102813.41;;;11.31;60.47
50268;BME280;36153;50.960;6.220;2023-02-12T06:54:48;102818.63;;;11.31;60.64
50268;BME280;36153;50.960;6.220;2023-02-12T06:57:48;102819.47;;;11.30;60.35
50268;BME280;36153;50.960;6.220;2023-02-12T07:00:49;102818.50;;;11.28;60.12
50268;BME280;36153;50.960;6.220;2023-02-12T07:03:54;102835.50;;;11.20;60.52
50268;BME280;36153;50.960;6.220;2023-02-12T07:06:55;102835.22;;;11.14;60.67
50268;BME280;36153;50.960;6.220;2023-02-12T07:09:55;102827.00;;;11.24;60.79
50268;BME280;36153;50.960;6.220;2023-02-12T07:12:56;102836.00;;;11.31;60.58
50268;BME280;36153;50.960;6.220;2023-02-12T07:15:56;102836.06;;;11.32;60.74
50268;BME280;36153;50.960;6.220;2023-02-12T07:18:56;102843.06;;;11.33;60.64
50268;BME280;36153;50.960;6.220;2023-02-12T07:21:57;102839.34;;;11.28;60.66
50268;BME280;36153;50.960;6.220;2023-02-12T07:24:57;102849.50;;;11.22;60.69
50268;BME280;36153;50.960;6.220;2023-02-12T07:27:57;102848.06;;;11.28;60.89
50268;BME280;36153;50.960;6.220;2023-02-12T07:30:58;102846.78;;;11.38;60.57
50268;BME280;36153;50.960;6.220;2023-02-12T07:33:59;102852.09;;;11.40;60.70
50268;BME280;36153;50.960;6.220;2023-02-12T07:36:59;102861.97;;;11.47;60.62
50268;BME280;36153;50.960;6.220;2023-02-12T07:40:00;102862.72;;;11.44;60.37
50268;BME280;36153;50.960;6.220;2023-02-12T07:43:00;102862.16;;;11.32;60.66
50268;BME280;36153;50.960;6.220;2023-02-12T07:46:06;102871.09;;;11.37;60.84
50268;BME280;36153;50.960;6.220;2023-02-12T07:49:07;102860.16;;;11.46;60.92
50268;BME280;36153;50.960;6.220;2023-02-12T07:52:10;102871.91;;;11.56;60.64
50268;BME280;36153;50.960;6.220;2023-02-12T07:55:15;102870.41;;;11.61;60.87
50268;BME280;36153;50.960;6.220;2023-02-12T07:58:15;102865.34;;;11.64;60.34
50268;BME280;36153;50.960;6.220;2023-02-12T08:01:16;102859.91;;;11.59;60.27
50268;BME280;36153;50.960;6.220;2023-02-12T08:04:19;102862.03;;;11.68;60.71
50268;BME280;36153;50.960;6.220;2023-02-12T08:07:20;102857.25;;;11.77;60.07
50268;BME280;36153;50.960;6.220;2023-02-12T08:10:20;102864.22;;;11.78;60.30
50268;BME280;36153;50.960;6.220;2023-02-12T08:13:22;102857.63;;;11.87;60.40
50268;BME280;36153;50.960;6.220;2023-02-12T08:16:24;102859.72;;;11.94;60.13
50268;BME280;36153;50.960;6.220;2023-02-12T08:19:25;102861.91;;;12.04;60.56
50268;BME280;36153;50.960;6.220;2023-02-12T08:22:26;102861.47;;;12.15;60.30
50268;BME280;36153;50.960;6.220;2023-02-12T08:25:26;102864.47;;;12.24;60.29
50268;BME280;36153;50.960;6.220;2023-02-12T08:28:26;102864.78;;;12.32;59.90
50268;BME280;36153;50.960;6.220;2023-02-12T08:31:29;102865.00;;;12.36;59.72
50268;BME280;36153;50.960;6.220;2023-02-12T08:34:32;102870.22;;;12.36;59.32
50268;BME280;36153;50.960;6.220;2023-02-12T08:37:33;102867.03;;;12.43;59.46
50268;BME280;36153;50.960;6.220;2023-02-12T08:40:33;102874.19;;;12.48;59.36
50268;BME280;36153;50.960;6.220;2023-02-12T08:43:33;102863.72;;;12.48;59.10
50268;BME280;36153;50.960;6.220;2023-02-12T08:46:36;102873.09;;;12.42;59.50
50268;BME280;36153;50.960;6.220;2023-02-12T08:49:37;102882.97;;;12.50;59.63
50268;BME280;36153;50.960;6.220;2023-02-12T08:52:37;102880.34;;;12.50;59.46
50268;BME280;36153;50.960;6.220;2023-02-12T08:55:38;102887.19;;;12.46;59.54
50268;BME280;36153;50.960;6.220;2023-02-12T08:58:39;102878.81;;;12.55;59.57
50268;BME280;36153;50.960;6.220;2023-02-12T09:01:40;102876.97;;;12.73;59.43
50268;BME280;36153;50.960;6.220;2023-02-12T09:04:40;102888.63;;;12.81;58.94
50268;BME280;36153;50.960;6.220;2023-02-12T09:07:41;102883.44;;;12.83;58.57
50268;BME280;36153;50.960;6.220;2023-02-12T09:10:42;102883.44;;;12.83;58.57
50268;BME280;36153;50.960;6.220;2023-02-12T09:13:45;102887.09;;;12.87;58.73
50268;BME280;36153;50.960;6.220;2023-02-12T09:16:47;102884.00;;;12.97;58.56
50268;BME280;36153;50.960;6.220;2023-02-12T09:19:47;102885.34;;;13.08;58.18
50268;BME280;36153;50.960;6.220;2023-02-12T09:22:47;102883.13;;;13.19;58.27
50268;BME280;36153;50.960;6.220;2023-02-12T09:25:48;102887.84;;;13.28;57.91
50268;BME280;36153;50.960;6.220;2023-02-12T09:28:49;102885.66;;;13.39;57.82
50268;BME280;36153;50.960;6.220;2023-02-12T09:31:49;102890.25;;;13.44;57.35
50268;BME280;36153;50.960;6.220;2023-02-12T09:34:50;102885.25;;;13.51;57.11
50268;BME280;36153;50.960;6.220;2023-02-12T09:37:51;102883.75;;;13.57;56.72
50268;BME280;36153;50.960;6.220;2023-02-12T09:41:21;102885.03;;;13.69;56.20
50268;BME280;36153;50.960;6.220;2023-02-12T09:47:58;102887.91;;;13.76;56.37
50268;BME280;36153;50.960;6.220;2023-02-12T09:51:06;102882.69;;;13.76;56.00
50268;BME280;36153;50.960;6.220;2023-02-12T09:54:16;102879.56;;;13.87;56.23
50268;BME280;36153;50.960;6.220;2023-02-12T09:57:18;102888.50;;;13.92;56.05
50268;BME280;36153;50.960;6.220;2023-02-12T10:00:29;102889.38;;;13.92;55.69
50268;BME280;36153;50.960;6.220;2023-02-12T10:03:30;102897.19;;;13.91;55.94
50268;BME280;36153;50.960;6.220;2023-02-12T10:06:36;102902.41;;;13.91;56.07
50268;BME280;36153;50.960;6.220;2023-02-12T10:13:41;102902.44;;;14.16;54.94
50268;BME280;36153;50.960;6.220;2023-02-12T10:20:36;102905.44;;;14.27;54.83
50268;BME280;36153;50.960;6.220;2023-02-12T10:26:57;102898.59;;;14.31;54.43
50268;BME280;36153;50.960;6.220;2023-02-12T10:30:03;102899.22;;;14.24;54.51
50268;BME280;36153;50.960;6.220;2023-02-12T10:33:34;102904.13;;;14.40;54.57
50268;BME280;36153;50.960;6.220;2023-02-12T10:36:40;102903.19;;;14.38;54.53
50268;BME280;36153;50.960;6.220;2023-02-12T10:39:47;102909.56;;;14.45;54.55
50268;BME280;36153;50.960;6.220;2023-02-12T10:42:51;102904.53;;;14.52;54.49
50268;BME280;36153;50.960;6.220;2023-02-12T10:45:52;102907.22;;;14.54;54.73
50268;BME280;36153;50.960;6.220;2023-02-12T10:48:52;102907.13;;;14.51;53.97
50268;BME280;36153;50.960;6.220;2023-02-12T10:52:11;102904.59;;;14.54;54.17
50268;BME280;36153;50.960;6.220;2023-02-12T10:55:25;102914.88;;;14.48;54.19
50268;BME280;36153;50.960;6.220;2023-02-12T10:58:26;102906.13;;;14.22;54.25
50268;BME280;36153;50.960;6.220;2023-02-12T11:01:30;102901.84;;;14.24;55.16
50268;BME280;36153;50.960;6.220;2023-02-12T11:04:32;102904.03;;;14.37;54.68
50268;BME280;36153;50.960;6.220;2023-02-12T11:07:46;102900.81;;;14.46;54.58
50268;BME280;36153;50.960;6.220;2023-02-12T11:10:47;102896.41;;;14.43;54.24
50268;BME280;36153;50.960;6.220;2023-02-12T11:14:17;102899.53;;;14.33;54.40
50268;BME280;36153;50.960;6.220;2023-02-12T11:17:38;102895.97;;;14.31;54.39
50268;BME280;36153;50.960;6.220;2023-02-12T11:20:47;102892.41;;;14.29;54.46
50268;BME280;36153;50.960;6.220;2023-02-12T11:23:48;102878.59;;;14.34;54.13
50268;BME280;36153;50.960;6.220;2023-02-12T11:26:48;102885.91;;;14.43;54.67
50268;BME280;36153;50.960;6.220;2023-02-12T11:30:11;102880.56;;;14.66;54.06
50268;BME280;36153;50.960;6.220;2023-02-12T11:33:28;102869.56;;;14.78;53.99
50268;BME280;36153;50.960;6.220;2023-02-12T11:36:32;102863.44;;;14.77;54.12
50268;BME280;36153;50.960;6.220;2023-02-12T11:39:35;102866.13;;;14.79;53.80
50268;BME280;36153;50.960;6.220;2023-02-12T11:42:37;102867.25;;;14.87;53.52
50268;BME280;36153;50.960;6.220;2023-02-12T11:45:43;102858.03;;;14.71;53.87
50268;BME280;36153;50.960;6.220;2023-02-12T11:48:46;102860.00;;;14.78;53.90
50268;BME280;36153;50.960;6.220;2023-02-12T11:51:47;102847.22;;;14.89;53.79
50268;BME280;36153;50.960;6.220;2023-02-12T11:54:50;102849.56;;;15.09;53.54
50268;BME280;36153;50.960;6.220;2023-02-12T11:57:53;102845.84;;;15.31;52.74
50268;BME280;36153;50.960;6.220;2023-02-12T12:01:04;102846.66;;;15.28;52.97
50268;BME280;36153;50.960;6.220;2023-02-12T12:04:11;102841.53;;;15.33;52.64
50268;BME280;36153;50.960;6.220;2023-02-12T12:07:21;102839.53;;;15.55;52.29
50268;BME280;36153;50.960;6.220;2023-02-12T12:10:46;102836.13;;;15.59;51.79
50268;BME280;36153;50.960;6.220;2023-02-12T12:17:41;102827.59;;;15.66;52.26
50268;BME280;36153;50.960;6.220;2023-02-12T12:21:37;102819.03;;;15.73;50.76
50268;BME280;36153;50.960;6.220;2023-02-12T12:24:51;102814.31;;;15.61;50.46
50268;BME280;36153;50.960;6.220;2023-02-12T12:27:59;102812.72;;;15.66;50.79
50268;BME280;36153;50.960;6.220;2023-02-12T12:31:26;102803.97;;;15.66;50.81
50268;BME280;36153;50.960;6.220;2023-02-12T12:34:27;102809.00;;;15.58;50.75
50268;BME280;36153;50.960;6.220;2023-02-12T12:37:35;102810.31;;;15.74;50.21
50268;BME280;36153;50.960;6.220;2023-02-12T12:41:03;102798.91;;;15.74;50.71
50268;BME280;36153;50.960;6.220;2023-02-12T12:47:52;102797.97;;;15.70;50.00
50268;BME280;36153;50.960;6.220;2023-02-12T12:51:22;102795.22;;;15.67;51.27
50268;BME280;36153;50.960;6.220;2023-02-12T13:01:27;102786.88;;;15.80;50.58
50268;BME280;36153;50.960;6.220;2023-02-12T13:04:41;102794.47;;;15.71;49.87
50268;BME280;36153;50.960;6.220;2023-02-12T13:14:32;102771.28;;;15.55;49.63
50268;BME280;36153;50.960;6.220;2023-02-12T13:17:42;102762.31;;;15.46;49.60
50268;BME280;36153;50.960;6.220;2023-02-12T13:24:16;102757.72;;;15.39;50.43
50268;BME280;36153;50.960;6.220;2023-02-12T13:27:31;102760.31;;;15.38;50.46
50268;BME280;36153;50.960;6.220;2023-02-12T13:30:41;102758.44;;;15.33;50.12
50268;BME280;36153;50.960;6.220;2023-02-12T13:33:47;102745.97;;;15.25;50.36
50268;BME280;36153;50.960;6.220;2023-02-12T13:36:48;102752.09;;;15.25;51.36
50268;BME280;36153;50.960;6.220;2023-02-12T13:39:50;102744.38;;;15.30;50.75
50268;BME280;36153;50.960;6.220;2023-02-12T13:42:57;102747.97;;;15.35;50.83
50268;BME280;36153;50.960;6.220;2023-02-12T13:52:09;102743.38;;;15.26;50.95
50268;BME280;36153;50.960;6.220;2023-02-12T13:55:48;102741.03;;;15.35;49.75
50268;BME280;36153;50.960;6.220;2023-02-12T13:58:54;102737.31;;;15.29;50.13
50268;BME280;36153;50.960;6.220;2023-02-12T14:02:44;102740.41;;;15.46;50.16
50268;BME280;36153;50.960;6.220;2023-02-12T14:05:30;102737.28;;;15.27;50.14
50268;BME280;36153;50.960;6.220;2023-02-12T14:08:35;102731.44;;;15.38;50.24
50268;BME280;36153;50.960;6.220;2023-02-12T14:11:49;102736.56;;;15.33;50.58
50268;BME280;36153;50.960;6.220;2023-02-12T14:14:53;102735.63;;;15.31;50.85
50268;BME280;36153;50.960;6.220;2023-02-12T14:18:21;102736.41;;;15.27;50.68
50268;BME280;36153;50.960;6.220;2023-02-12T14:27:46;102740.44;;;15.15;51.18
50268;BME280;36153;50.960;6.220;2023-02-12T14:37:16;102738.41;;;15.05;51.22
50268;BME280;36153;50.960;6.220;2023-02-12T14:43:36;102734.69;;;14.97;51.25
50268;BME280;36153;50.960;6.220;2023-02-12T14:47:00;102733.75;;;14.95;51.39
50268;BME280;36153;50.960;6.220;2023-02-12T14:50:16;102734.50;;;14.91;51.41
50268;BME280;36153;50.960;6.220;2023-02-12T14:53:30;102731.06;;;14.93;51.51
50268;BME280;36153;50.960;6.220;2023-02-12T14:56:40;102738.72;;;14.85;51.71
50268;BME280;36153;50.960;6.220;2023-02-12T14:59:45;102739.47;;;14.81;52.14
50268;BME280;36153;50.960;6.220;2023-02-12T15:02:51;102739.47;;;14.81;51.82
50268;BME280;36153;50.960;6.220;2023-02-12T15:06:15;102740.34;;;14.82;51.88
50268;BME280;36153;50.960;6.220;2023-02-12T15:09:35;102735.91;;;14.79;52.65
50268;BME280;36153;50.960;6.220;2023-02-12T15:12:40;102737.97;;;14.90;52.57
50268;BME280;36153;50.960;6.220;2023-02-12T15:15:50;102733.03;;;14.70;52.12
50268;BME280;36153;50.960;6.220;2023-02-12T15:18:57;102732.47;;;14.53;52.64
50268;BME280;36153;50.960;6.220;2023-02-12T15:21:59;102735.16;;;14.55;52.92
50268;BME280;36153;50.960;6.220;2023-02-12T15:28:29;102724.31;;;14.44;53.08
50268;BME280;36153;50.960;6.220;2023-02-12T15:31:33;102734.56;;;14.36;53.25
50268;BME280;36153;50.960;6.220;2023-02-12T15:34:36;102724.97;;;14.37;53.29
50268;BME280;36153;50.960;6.220;2023-02-12T15:37:39;102722.34;;;14.37;53.88
50268;BME280;36153;50.960;6.220;2023-02-12T15:40:53;102713.41;;;14.30;53.61
50268;BME280;36153;50.960;6.220;2023-02-12T15:43:54;102713.28;;;14.25;53.86
50268;BME280;36153;50.960;6.220;2023-02-12T15:49:59;102710.41;;;14.17;54.00
50268;BME280;36153;50.960;6.220;2023-02-12T15:53:00;102703.38;;;14.16;53.79
50268;BME280;36153;50.960;6.220;2023-02-12T15:56:01;102700.47;;;14.07;53.89
50268;BME280;36153;50.960;6.220;2023-02-12T15:59:05;102710.78;;;14.03;54.09
50268;BME280;36153;50.960;6.220;2023-02-12T16:02:25;102706.97;;;13.93;54.36
50268;BME280;36153;50.960;6.220;2023-02-12T16:05:26;102694.75;;;13.92;54.41
50268;BME280;36153;50.960;6.220;2023-02-12T16:08:28;102704.25;;;13.90;54.37
50268;BME280;36153;50.960;6.220;2023-02-12T16:11:29;102706.00;;;13.89;54.62
50268;BME280;36153;50.960;6.220;2023-02-12T16:14:56;102710.13;;;13.82;54.63
50268;BME280;36153;50.960;6.220;2023-02-12T16:17:59;102707.56;;;13.84;54.51
50268;BME280;36153;50.960;6.220;2023-02-12T16:24:31;102706.00;;;13.89;54.38
50268;BME280;36153;50.960;6.220;2023-02-12T16:27:33;102703.22;;;13.85;54.28
50268;BME280;36153;50.960;6.220;2023-02-12T16:30:36;102702.97;;;13.77;54.33
50268;BME280;36153;50.960;6.220;2023-02-12T16:36:45;102706.47;;;13.77;54.28
50268;BME280;36153;50.960;6.220;2023-02-12T16:46:01;102709.53;;;13.64;54.93
50268;BME280;36153;50.960;6.220;2023-02-12T16:49:02;102708.56;;;13.62;54.78
50268;BME280;36153;50.960;6.220;2023-02-12T16:55:25;102709.31;;;13.58;54.88
50268;BME280;36153;50.960;6.220;2023-02-12T16:58:26;102713.47;;;13.53;55.03
50268;BME280;36153;50.960;6.220;2023-02-12T17:01:30;102710.84;;;13.53;55.35
50268;BME280;36153;50.960;6.220;2023-02-12T17:04:31;102708.09;;;13.48;55.40
50268;BME280;36153;50.960;6.220;2023-02-12T17:07:32;102710.56;;;13.43;55.39
50268;BME280;36153;50.960;6.220;2023-02-12T17:10:32;102714.78;;;13.40;55.63
50268;BME280;36153;50.960;6.220;2023-02-12T17:13:33;102707.84;;;13.40;55.51
50268;BME280;36153;50.960;6.220;2023-02-12T17:16:34;102706.16;;;13.42;55.56
50268;BME280;36153;50.960;6.220;2023-02-12T17:19:34;102712.22;;;13.41;55.44
50268;BME280;36153;50.960;6.220;2023-02-12T17:22:34;102706.88;;;13.38;55.72
50268;BME280;36153;50.960;6.220;2023-02-12T17:25:35;102711.81;;;13.30;55.92
50268;BME280;36153;50.960;6.220;2023-02-12T17:28:35;102708.19;;;13.27;56.00
50268;BME280;36153;50.960;6.220;2023-02-12T17:31:36;102711.69;;;13.27;56.19
50268;BME280;36153;50.960;6.220;2023-02-12T17:34:37;102712.25;;;13.19;56.20
50268;BME280;36153;50.960;6.220;2023-02-12T17:37:37;102714.97;;;13.22;55.85
50268;BME280;36153;50.960;6.220;2023-02-12T17:40:38;102713.69;;;13.10;56.36
50268;BME280;36153;50.960;6.220;2023-02-12T17:43:38;102713.03;;;13.16;56.27
50268;BME280;36153;50.960;6.220;2023-02-12T17:46:39;102714.53;;;13.09;56.32
50268;BME280;36153;50.960;6.220;2023-02-12T17:49:39;102718.00;;;13.08;56.45
50268;BME280;36153;50.960;6.220;2023-02-12T17:52:40;102721.50;;;13.09;56.35
50268;BME280;36153;50.960;6.220;2023-02-12T17:55:40;102724.88;;;13.06;56.59
50268;BME280;36153;50.960;6.220;2023-02-12T17:58:41;102721.34;;;13.04;56.48
50268;BME280;36153;50.960;6.220;2023-02-12T18:01:42;102719.44;;;13.00;56.40
50268;BME280;36153;50.960;6.220;2023-02-12T18:04:43;102716.47;;;12.91;56.57
50268;BME280;36153;50.960;6.220;2023-02-12T18:07:43;102722.41;;;12.87;56.67